Time;durP1;ratioP1;P1;durP2;ratioP2;P2;SDS_P1;SDS_P2;PMS_P1;PMS_P2;Temp;Humidity;BMP_temperature;BMP_pressure;BME280_temperature;BME280_humidity;BME280_pressure;Samples;Min_cycle;Max_cycle;Signal;HPM_P1;HPM_P2
2022/01/30 00:01:27;;;;;;;2.10;1.88;;;;;;;4.97;83.73;100865.31;4954906;28;20568;-79
2022/01/30 00:03:54;;;;;;;1.83;1.70;;;;;;;4.95;83.82;100872.28;4954581;28;20295;-78
2022/01/30 00:06:20;;;;;;;1.70;1.55;;;;;;;4.95;84.03;100866.22;4955595;28;20544;-78
2022/01/30 00:08:45;;;;;;;2.33;1.70;;;;;;;4.95;83.65;100864.47;4953437;28;20767;-79
2022/01/30 00:11:17;;;;;;;1.70;1.53;;;;;;;4.94;83.73;100862.78;4952984;28;21041;-79
2022/01/30 00:13:43;;;;;;;2.58;2.00;;;;;;;4.95;83.62;100858.41;4951679;28;20239;-78
2022/01/30 00:16:10;;;;;;;1.50;1.38;;;;;;;4.95;83.65;100846.25;4956681;28;20208;-78
2022/01/30 00:19:06;;;;;;;2.22;1.70;;;;;;;4.94;83.52;100857.56;4936505;28;20257;-78
2022/01/30 00:21:37;;;;;;;1.30;1.20;;;;;;;4.94;83.79;100865.38;4934275;29;20622;-79
2022/01/30 00:24:12;;;;;;;2.17;1.30;;;;;;;4.94;83.64;100859.28;4952575;28;20232;-79
2022/01/30 00:26:41;;;;;;;2.00;1.65;;;;;;;4.95;83.35;100872.28;4969487;28;20212;-78
2022/01/30 00:29:08;;;;;;;1.67;1.35;;;;;;;4.95;83.57;100869.69;4956658;28;20243;-79
2022/01/30 00:31:35;;;;;;;1.90;1.60;;;;;;;4.99;83.43;100873.94;4955744;28;20484;-79
2022/01/30 00:34:01;;;;;;;1.75;1.65;;;;;;;4.99;83.62;100870.47;4952554;28;20209;-79
2022/01/30 00:36:30;;;;;;;1.70;1.30;;;;;;;4.99;83.71;100863.50;4969928;28;20713;-78
2022/01/30 00:38:56;;;;;;;1.63;1.30;;;;;;;4.98;83.55;100861.81;4954634;28;20212;-78
2022/01/30 00:41:22;;;;;;;3.00;1.40;;;;;;;4.98;nan;100854.00;4953595;28;20216;-78
2022/01/30 00:43:47;;;;;;;1.90;1.63;;;;;;;4.96;83.55;100850.56;4954542;28;20567;-78
2022/01/30 00:46:14;;;;;;;1.75;1.65;;;;;;;4.95;83.57;100846.25;4964397;28;20212;-79
2022/01/30 00:48:46;;;;;;;1.30;1.20;;;;;;;4.92;83.89;100840.25;4965785;28;20236;-78
2022/01/30 00:51:20;;;;;;;1.95;1.60;;;;;;;4.90;83.97;100832.47;4954785;28;20551;-77
2022/01/30 00:53:47;;;;;;;1.92;1.50;;;;;;;4.89;83.85;100820.34;4968301;28;20442;-79
2022/01/30 00:56:13;;;;;;;1.50;1.30;;;;;;;4.88;84.28;100813.41;4953724;28;20536;-79
2022/01/30 00:58:38;;;;;;;1.07;0.97;;;;;;;4.87;84.41;100809.09;4958431;28;20228;-77
2022/01/30 01:01:04;;;;;;;1.40;1.20;;;;;;;4.85;84.22;100813.47;4953622;28;20722;-78
2022/01/30 01:03:30;;;;;;;2.00;1.40;;;;;;;4.83;84.47;100825.66;4969212;28;20571;-79
2022/01/30 01:05:58;;;;;;;1.48;1.38;;;;;;;4.78;84.46;100838.78;4953800;28;20325;-78
2022/01/30 01:08:35;;;;;;;1.67;1.25;;;;;;;4.75;84.50;100843.19;4950789;28;20752;-79
2022/01/30 01:11:27;;;;;;;3.10;1.65;;;;;;;4.72;84.25;100835.44;4950477;28;20229;-78
2022/01/30 01:24:16;;;;;;;2.55;2.05;;;;;;;4.61;84.45;100838.25;4952387;28;20204;-78
2022/01/30 01:26:42;;;;;;;1.88;1.70;;;;;;;4.59;84.66;100835.69;4969100;28;20224;-79
2022/01/30 01:29:08;;;;;;;1.40;1.30;;;;;;;4.57;84.70;100819.25;4953059;28;20687;-78
2022/01/30 01:31:34;;;;;;;1.70;1.60;;;;;;;4.59;84.75;100819.19;4949112;28;20502;-79
2022/01/30 01:34:16;;;;;;;1.88;1.70;;;;;;;4.55;84.78;100825.38;4952586;28;20215;-80
2022/01/30 01:36:42;;;;;;;2.10;1.85;;;;;;;4.53;84.84;100829.72;4958727;28;20227;-80
2022/01/30 01:39:08;;;;;;;1.92;1.75;;;;;;;4.51;85.22;100834.09;4954337;28;20643;-77
2022/01/30 01:41:36;;;;;;;2.00;1.63;;;;;;;4.50;85.31;100828.03;4949977;28;20697;-77
2022/01/30 01:44:01;;;;;;;1.33;1.15;;;;;;;4.51;85.16;100844.50;4962657;28;20211;-78
2022/01/30 01:46:32;;;;;;;1.30;1.17;;;;;;;4.49;85.37;100831.53;4968311;28;20555;-78
2022/01/30 01:48:58;;;;;;;1.10;1.00;;;;;;;4.49;85.03;100828.09;4954936;28;20319;-79
2022/01/30 01:51:25;;;;;;;1.87;1.63;;;;;;;4.49;85.50;100828.94;4953258;28;20311;-79
2022/01/30 01:53:53;;;;;;;3.08;1.48;;;;;;;4.50;85.32;100827.19;4952018;28;20407;-78
2022/01/30 01:56:19;;;;;;;1.10;1.00;;;;;;;4.50;85.34;100816.78;4956356;28;20312;-78
2022/01/30 01:58:52;;;;;;;1.20;1.02;;;;;;;4.49;85.45;100812.47;4966984;28;20196;-79
2022/01/30 02:01:28;;;;;;;1.52;1.10;;;;;;;4.53;85.05;100817.56;4951801;28;20478;-77
2022/01/30 02:03:54;;;;;;;0.90;0.90;;;;;;;4.52;85.54;100820.22;4972659;28;20552;-79
2022/01/30 02:06:22;;;;;;;1.00;0.90;;;;;;;4.52;85.49;100802.84;4952477;28;20208;-78
2022/01/30 02:08:55;;;;;;;2.10;1.60;;;;;;;4.52;85.54;100795.06;4965637;28;20225;-80
2022/01/30 02:27:00;;;;;;;1.10;1.00;;;;;;;4.54;85.38;100784.63;4970251;28;20211;-78
2022/01/30 02:29:26;;;;;;;1.30;1.07;;;;;;;4.54;85.37;100787.22;4951237;28;20201;-78
2022/01/30 02:31:55;;;;;;;1.10;1.00;;;;;;;4.57;85.32;100780.22;4957596;28;20476;-78
2022/01/30 02:34:27;;;;;;;1.10;1.00;;;;;;;4.56;85.62;100770.66;4956277;28;20502;-79
2022/01/30 02:36:53;;;;;;;1.70;1.30;;;;;;;4.54;85.55;100762.06;4976909;28;20671;-79
2022/01/30 02:39:20;;;;;;;1.00;0.90;;;;;;;4.54;85.69;100746.47;4971600;28;20213;-79
2022/01/30 02:41:46;;;;;;;1.08;0.90;;;;;;;4.51;85.33;100736.13;4957395;28;20208;-79
2022/01/30 02:44:23;;;;;;;0.80;0.80;;;;;;;4.51;85.71;100746.53;4971918;28;20364;-79
2022/01/30 02:46:52;;;;;;;1.95;1.00;;;;;;;4.51;85.55;100751.72;4980207;28;20230;-79
2022/01/30 02:51:57;;;;;;;1.67;0.90;;;;;;;4.55;85.74;100770.72;4959886;28;20216;-78
2022/01/30 02:54:23;;;;;;;1.23;0.75;;;;;;;4.56;86.06;100793.25;4962970;28;20235;-78
2022/01/30 02:56:48;;;;;;;1.10;1.00;;;;;;;4.57;85.76;100798.44;4955308;28;20209;-78
2022/01/30 02:59:15;;;;;;;1.27;0.80;;;;;;;4.59;85.66;100796.66;4952258;28;20211;-78
2022/01/30 03:01:40;;;;;;;1.63;0.90;;;;;;;4.59;85.65;100787.97;4955572;28;20215;-78
2022/01/30 03:04:07;;;;;;;1.07;0.90;;;;;;;4.59;85.69;100785.38;4952960;28;20204;-79
2022/01/30 03:06:33;;;;;;;0.82;0.82;;;;;;;4.59;85.76;100786.25;4953408;28;20244;-78
2022/01/30 03:08:58;;;;;;;0.80;0.80;;;;;;;4.60;85.97;100785.34;4955610;28;20298;-78
2022/01/30 03:11:24;;;;;;;0.90;0.70;;;;;;;4.62;85.61;100782.72;4954603;28;20212;-78
2022/01/30 03:13:50;;;;;;;0.80;0.77;;;;;;;4.61;85.65;100774.03;4954869;28;20870;-78
2022/01/30 03:16:16;;;;;;;0.70;0.60;;;;;;;4.61;85.63;100781.00;4952304;28;20451;-78
2022/01/30 03:18:43;;;;;;;0.70;0.70;;;;;;;4.62;85.48;100765.38;4953584;28;20308;-78
2022/01/30 03:21:08;;;;;;;1.13;0.88;;;;;;;4.63;85.52;100753.22;4954258;28;20200;-78
2022/01/30 03:23:38;;;;;;;0.93;0.70;;;;;;;4.63;85.60;100740.19;4950783;28;20204;-78
2022/01/30 03:26:04;;;;;;;0.98;0.70;;;;;;;4.65;85.22;100764.44;4955817;28;20678;-78
2022/01/30 03:28:56;;;;;;;0.80;0.80;;;;;;;4.66;85.21;100754.00;4959355;28;20494;-78
2022/01/30 03:31:24;;;;;;;1.17;0.70;;;;;;;4.67;85.19;100752.25;4951457;28;20510;-78
2022/01/30 03:33:50;;;;;;;1.00;0.60;;;;;;;4.67;85.37;100767.84;4955959;28;20216;-78
2022/01/30 03:36:21;;;;;;;0.88;0.70;;;;;;;4.66;85.23;100768.75;4959135;28;20526;-78
2022/01/30 03:38:47;;;;;;;0.80;0.60;;;;;;;4.65;85.23;100760.09;4992003;23;20279;-77
2022/01/30 03:41:14;;;;;;;2.28;0.77;;;;;;;4.64;85.35;100766.19;4987461;28;20211;-78
2022/01/30 03:43:39;;;;;;;1.10;0.70;;;;;;;4.65;85.20;100760.09;4983754;28;20210;-78
2022/01/30 03:46:05;;;;;;;0.80;0.70;;;;;;;4.64;85.25;100761.00;4985443;28;20245;-78
2022/01/30 03:48:31;;;;;;;0.80;0.70;;;;;;;4.64;84.96;100749.69;4986319;28;20250;-78
2022/01/30 03:51:05;;;;;;;2.78;1.00;;;;;;;4.64;84.97;100750.59;4986543;28;20483;-78
2022/01/30 03:53:32;;;;;;;0.60;0.53;;;;;;;4.65;84.99;100756.66;4997632;28;20312;-78
2022/01/30 03:55:58;;;;;;;0.90;0.70;;;;;;;4.66;84.90;100754.00;5019426;28;20211;-77
2022/01/30 03:58:30;;;;;;;0.93;0.60;;;;;;;4.69;84.98;100765.22;4988302;28;20226;-78
2022/01/30 04:00:57;;;;;;;0.90;0.80;;;;;;;4.70;84.71;100757.41;4986763;28;21026;-78
2022/01/30 04:03:22;;;;;;;0.77;0.60;;;;;;;4.70;85.11;100757.41;4984503;28;20453;-77
2022/01/30 04:05:48;;;;;;;0.87;0.87;;;;;;;4.71;84.89;100760.84;4985609;28;20771;-78
2022/01/30 04:08:14;;;;;;;0.93;0.50;;;;;;;4.73;84.47;100767.75;4986476;28;20516;-77
2022/01/30 04:11:01;;;;;;;0.80;0.60;;;;;;;4.73;84.67;100762.53;4987642;28;20219;-78
2022/01/30 04:13:53;;;;;;;1.13;0.60;;;;;;;4.75;84.89;100762.50;4983320;28;20207;-77
2022/01/30 04:16:38;;;;;;;1.05;0.60;;;;;;;4.74;84.80;100756.44;4998474;28;20214;-78
2022/01/30 04:19:33;;;;;;;0.73;0.70;;;;;;;4.75;84.62;100767.69;4989093;28;20230;-78
2022/01/30 04:22:11;;;;;;;1.05;0.93;;;;;;;4.75;84.62;100762.50;4994953;28;20227;-78
2022/01/30 04:24:54;;;;;;;1.10;0.80;;;;;;;4.76;84.63;100769.44;4984967;28;20239;-78
2022/01/30 04:27:46;;;;;;;1.15;0.60;;;;;;;4.77;84.64;100779.78;4993545;28;20211;-78
2022/01/30 04:30:50;;;;;;;1.88;1.00;;;;;;;4.85;84.97;100775.28;4938821;29;21097;-78
2022/01/30 04:33:35;;;;;;;0.90;0.90;;;;;;;4.83;85.08;100771.00;4933533;29;20227;-78
2022/01/30 04:36:28;;;;;;;0.70;0.70;;;;;;;4.80;85.16;100779.72;4965149;28;20295;-78
2022/01/30 04:39:32;;;;;;;0.70;0.70;;;;;;;4.79;85.08;100774.56;5017767;28;20234;-78
2022/01/30 04:58:33;;;;;;;0.90;0.80;;;;;;;4.70;86.06;100792.97;4984460;28;20242;-77
2022/01/30 05:01:21;;;;;;;1.40;1.08;;;;;;;4.69;85.80;100802.53;4998328;28;20475;-77
2022/01/30 05:04:14;;;;;;;0.77;0.68;;;;;;;4.68;86.61;100818.19;4997608;28;20203;-77
2022/01/30 05:09:45;;;;;;;0.85;0.85;;;;;;;4.63;86.44;100807.84;4994007;28;20400;-77
2022/01/30 05:12:31;;;;;;;1.30;1.10;;;;;;;4.63;86.84;100810.47;4982372;28;20313;-76
2022/01/30 05:15:09;;;;;;;0.90;0.70;;;;;;;4.62;87.11;100807.00;5001577;28;20206;-76
2022/01/30 05:17:47;;;;;;;1.00;0.90;;;;;;;4.61;86.97;100805.28;4981511;28;20210;-76
2022/01/30 05:20:34;;;;;;;0.82;0.82;;;;;;;4.60;87.09;100806.16;4989344;28;20200;-76
2022/01/30 05:23:10;;;;;;;0.82;0.82;;;;;;;4.59;87.33;100803.59;4980800;28;20360;-76
2022/01/30 05:25:48;;;;;;;0.90;0.80;;;;;;;4.58;87.45;100813.13;4976942;28;20208;-77
2022/01/30 05:28:15;;;;;;;1.20;1.10;;;;;;;4.57;87.44;100816.66;4989485;28;20224;-77
2022/01/30 05:30:59;;;;;;;1.60;1.20;;;;;;;4.58;87.53;100822.69;4990540;28;20490;-77
2022/01/30 05:33:53;;;;;;;1.30;1.05;;;;;;;4.57;87.70;100829.66;4962017;28;20251;-77
2022/01/30 05:36:30;;;;;;;1.20;1.10;;;;;;;4.55;88.08;100823.63;4971728;28;20198;-77
2022/01/30 05:39:15;;;;;;;1.48;1.17;;;;;;;4.56;87.93;100832.28;4961915;28;20243;-77
2022/01/30 05:42:20;;;;;;;1.25;1.02;;;;;;;4.56;87.96;100832.28;5006467;28;20758;-77
2022/01/30 05:45:16;;;;;;;1.10;1.00;;;;;;;4.55;88.06;100836.63;5008448;28;20293;-77
2022/01/30 05:48:16;;;;;;;1.38;1.05;;;;;;;4.55;88.17;100840.97;4981629;28;20233;-77
2022/01/30 05:50:53;;;;;;;1.35;1.17;;;;;;;4.54;88.50;100840.13;4980038;28;20312;-77
2022/01/30 05:53:27;;;;;;;1.30;1.20;;;;;;;4.53;88.40;100838.38;5012976;28;20532;-77
2022/01/30 05:56:02;;;;;;;3.80;1.25;;;;;;;4.54;88.45;100844.47;4977713;28;20199;-78
2022/01/30 05:58:28;;;;;;;1.77;1.00;;;;;;;4.55;88.44;100846.19;4994270;28;20218;-77
2022/01/30 06:01:14;;;;;;;1.50;1.40;;;;;;;4.57;88.52;100844.41;4986343;28;21067;-77
2022/01/30 06:03:39;;;;;;;1.10;1.00;;;;;;;4.57;88.66;100850.47;4975934;28;20293;-78
2022/01/30 06:06:07;;;;;;;1.30;1.10;;;;;;;4.57;88.69;100850.47;4980222;28;20844;-77
2022/01/30 06:08:46;;;;;;;1.50;1.40;;;;;;;4.58;88.71;100851.31;4980081;28;20325;-77
2022/01/30 06:11:13;;;;;;;1.70;1.38;;;;;;;4.57;88.76;100855.66;4997742;28;20245;-77
2022/01/30 06:13:40;;;;;;;1.30;1.20;;;;;;;4.56;88.84;100859.16;5000192;28;20257;-77
2022/01/30 06:16:06;;;;;;;1.10;0.93;;;;;;;4.57;88.74;100871.28;4983997;28;20195;-77
2022/01/30 06:18:32;;;;;;;1.77;1.10;;;;;;;4.59;88.73;100868.63;4999034;28;20222;-77
2022/01/30 06:21:18;;;;;;;2.25;1.45;;;;;;;4.59;88.67;100877.34;4995795;28;20203;-77
2022/01/30 06:24:12;;;;;;;1.48;1.38;;;;;;;4.59;88.61;100879.94;4996275;28;20217;-77
2022/01/30 06:26:56;;;;;;;1.40;1.30;;;;;;;4.59;88.74;100877.34;4994897;28;20249;-77
2022/01/30 06:29:40;;;;;;;2.25;1.42;;;;;;;4.58;88.64;100873.00;4993810;28;20571;-77
2022/01/30 06:32:24;;;;;;;2.38;1.90;;;;;;;4.64;88.84;100875.50;4994767;28;20595;-77
2022/01/30 06:35:08;;;;;;;2.10;1.33;;;;;;;4.59;89.02;100874.72;4995551;28;20597;-77
2022/01/30 06:38:06;;;;;;;3.72;1.45;;;;;;;4.57;89.37;100870.44;4984627;28;20647;-77
2022/01/30 06:40:50;;;;;;;1.88;1.20;;;;;;;4.55;89.32;100877.41;4992261;28;20261;-77
2022/01/30 06:43:36;;;;;;;1.40;1.30;;;;;;;4.49;89.49;100867.97;4993994;28;20709;-77
2022/01/30 06:46:20;;;;;;;1.13;1.02;;;;;;;4.48;89.18;100871.44;4984887;28;20215;-77
2022/01/30 06:49:15;;;;;;;2.25;1.25;;;;;;;4.45;89.40;100876.69;4972744;28;20230;-77
2022/01/30 06:51:40;;;;;;;3.43;1.50;;;;;;;4.43;89.45;100883.69;4994327;28;20251;-77
2022/01/30 06:54:41;;;;;;;2.33;1.52;;;;;;;4.39;89.48;100897.63;4959581;28;20224;-77
2022/01/30 06:57:25;;;;;;;3.75;1.40;;;;;;;4.39;89.63;100892.44;4990731;28;20222;-77
2022/01/30 07:00:10;;;;;;;1.60;1.50;;;;;;;4.39;89.79;100898.47;4995776;28;20333;-77
2022/01/30 07:02:55;;;;;;;2.03;1.70;;;;;;;4.48;89.60;100894.84;4990787;28;20491;-77
2022/01/30 07:05:38;;;;;;;1.67;1.58;;;;;;;4.44;89.94;100893.22;4978980;28;20462;-77
2022/01/30 07:08:16;;;;;;;1.58;1.20;;;;;;;4.42;89.74;100893.22;5015517;28;20266;-77
2022/01/30 07:10:42;;;;;;;1.33;1.23;;;;;;;4.41;90.12;100898.47;4993201;28;20706;-77
2022/01/30 07:13:08;;;;;;;2.80;1.50;;;;;;;4.40;90.01;100900.22;4992215;28;20222;-77
2022/01/30 07:15:34;;;;;;;2.05;1.60;;;;;;;4.41;89.76;100898.47;4989012;28;20235;-78
2022/01/30 07:18:00;;;;;;;2.03;1.40;;;;;;;4.41;89.78;100901.06;4994339;28;20220;-78
2022/01/30 07:20:25;;;;;;;2.03;1.60;;;;;;;4.43;89.86;100907.13;4993198;28;20568;-77
2022/01/30 07:22:51;;;;;;;2.00;1.50;;;;;;;4.43;89.65;100904.50;4996339;28;20293;-77
2022/01/30 07:25:16;;;;;;;2.20;1.70;;;;;;;4.43;89.95;100910.56;4990911;28;20210;-77
2022/01/30 07:27:42;;;;;;;2.00;1.77;;;;;;;4.44;89.87;100908.81;4992158;28;20278;-76
2022/01/30 07:30:09;;;;;;;2.03;1.70;;;;;;;4.44;89.71;100912.28;4992216;28;20238;-77
2022/01/30 07:32:34;;;;;;;2.85;2.10;;;;;;;4.54;89.85;100914.72;4991333;28;20537;-77
2022/01/30 07:35:00;;;;;;;2.30;2.10;;;;;;;4.50;90.06;100921.72;4992719;28;20203;-77
2022/01/30 07:37:26;;;;;;;2.30;2.03;;;;;;;4.50;89.96;100911.31;5000288;28;20228;-77
2022/01/30 07:39:52;;;;;;;2.90;2.23;;;;;;;4.50;89.74;100921.72;4997515;28;20278;-77
2022/01/30 07:42:19;;;;;;;2.47;1.80;;;;;;;4.50;89.96;100913.91;4999263;28;20462;-77
2022/01/30 07:44:45;;;;;;;3.72;2.47;;;;;;;4.50;89.91;100918.25;5022161;28;20297;-77
2022/01/30 07:47:10;;;;;;;4.45;3.80;;;;;;;4.50;89.80;100924.31;4999235;28;20290;-77
2022/01/30 07:49:35;;;;;;;2.97;2.50;;;;;;;4.53;89.63;100926.84;4988399;28;20882;-77
2022/01/30 07:52:01;;;;;;;4.83;3.20;;;;;;;4.53;89.65;100926.00;4998329;28;20207;-77
2022/01/30 07:54:26;;;;;;;4.87;3.20;;;;;;;4.53;89.96;100926.84;4998333;28;20211;-77
2022/01/30 07:56:52;;;;;;;4.40;4.00;;;;;;;4.55;89.69;100932.91;4997954;28;20262;-77
2022/01/30 07:59:17;;;;;;;5.03;4.53;;;;;;;4.59;89.74;100931.97;4996442;28;20524;-77
2022/01/30 08:01:43;;;;;;;5.97;5.00;;;;;;;4.64;89.39;100937.97;4993659;28;21005;-77
2022/01/30 08:04:08;;;;;;;5.50;4.43;;;;;;;4.63;89.54;100938.81;4993508;28;20211;-77
2022/01/30 08:06:34;;;;;;;5.90;4.20;;;;;;;4.62;89.46;100929.31;4997623;28;20203;-77
2022/01/30 08:09:00;;;;;;;4.22;3.83;;;;;;;4.64;89.66;100945.78;4996125;28;20242;-77
2022/01/30 08:11:26;;;;;;;6.30;4.00;;;;;;;4.68;89.80;100948.31;4995515;28;20219;-77
2022/01/30 08:13:51;;;;;;;3.57;3.10;;;;;;;4.70;89.41;100939.59;4995194;28;20893;-77
2022/01/30 08:16:19;;;;;;;4.30;3.70;;;;;;;4.74;89.32;100951.66;4994936;28;20274;-78
2022/01/30 08:18:45;;;;;;;3.15;2.80;;;;;;;4.78;89.54;100947.22;4996186;28;20666;-77
2022/01/30 08:21:10;;;;;;;3.07;2.77;;;;;;;4.81;89.20;100952.41;4999523;28;20712;-77
2022/01/30 08:23:35;;;;;;;3.80;3.00;;;;;;;4.83;89.16;100950.63;4994938;28;20195;-77
2022/01/30 08:26:02;;;;;;;4.30;3.70;;;;;;;4.82;88.76;100954.97;4991810;28;20251;-77
2022/01/30 08:28:27;;;;;;;4.38;3.38;;;;;;;4.85;89.11;100964.47;4991351;28;20253;-77
2022/01/30 08:30:53;;;;;;;5.28;3.25;;;;;;;4.87;89.05;100973.13;4996406;28;20520;-77
2022/01/30 08:33:19;;;;;;;5.20;4.83;;;;;;;4.88;88.97;100973.06;4989011;28;20211;-77
2022/01/30 08:35:45;;;;;;;5.73;5.23;;;;;;;4.91;88.98;100971.31;4995631;28;20225;-78
2022/01/30 08:38:13;;;;;;;8.93;7.97;;;;;;;4.92;88.95;100984.31;4991407;28;20263;-77
2022/01/30 08:40:38;;;;;;;14.55;9.32;;;;;;;4.94;89.11;100985.16;5003803;28;20215;-77
2022/01/30 08:43:04;;;;;;;13.47;8.47;;;;;;;4.99;88.70;100978.09;4996009;28;20253;-78
2022/01/30 08:45:30;;;;;;;9.17;7.13;;;;;;;5.03;88.68;100984.13;4996599;28;20250;-77
2022/01/30 08:47:55;;;;;;;9.87;7.13;;;;;;;5.07;88.63;100981.41;4996007;28;20204;-78
2022/01/30 08:50:21;;;;;;;9.20;7.27;;;;;;;5.14;88.55;100978.69;4986339;28;20204;-77
2022/01/30 08:52:48;;;;;;;5.05;4.57;;;;;;;5.19;88.41;100971.66;4997932;28;20215;-77
2022/01/30 08:55:15;;;;;;;4.63;3.80;;;;;;;5.26;88.11;100974.09;5019285;28;20217;-78
2022/01/30 08:57:40;;;;;;;3.80;3.50;;;;;;;5.31;88.19;100984.44;4993083;28;20214;-78
2022/01/30 09:00:09;;;;;;;4.70;4.30;;;;;;;5.36;88.07;100987.81;4989424;28;20214;-77
2022/01/30 09:02:35;;;;;;;7.50;6.80;;;;;;;5.48;87.64;100979.75;4992280;28;20507;-77
2022/01/30 09:05:00;;;;;;;9.70;5.80;;;;;;;5.48;87.96;100997.09;4988783;28;20218;-78
2022/01/30 09:07:26;;;;;;;4.53;4.10;;;;;;;5.48;87.63;100997.09;4998988;28;20206;-78
2022/01/30 09:09:51;;;;;;;4.27;3.87;;;;;;;5.49;87.80;100996.25;4994456;28;20215;-78
2022/01/30 09:12:17;;;;;;;3.70;3.40;;;;;;;5.49;87.68;100994.47;4999968;28;20265;-77
2022/01/30 09:14:43;;;;;;;4.47;3.70;;;;;;;5.50;87.68;100998.78;4992648;28;20207;-78
2022/01/30 09:17:14;;;;;;;3.55;3.10;;;;;;;5.50;87.76;101001.41;4984652;28;20206;-78
2022/01/30 09:19:41;;;;;;;4.57;3.60;;;;;;;5.54;87.47;101000.47;4989776;28;20223;-78
2022/01/30 09:22:09;;;;;;;3.53;3.22;;;;;;;5.60;87.79;101006.44;4989078;28;20215;-78
2022/01/30 09:24:36;;;;;;;4.30;3.10;;;;;;;5.67;87.17;101005.41;5002329;28;20317;-77
2022/01/30 09:27:02;;;;;;;4.03;3.67;;;;;;;5.72;87.26;101007.03;4995378;28;20230;-78
2022/01/30 09:29:28;;;;;;;4.30;3.20;;;;;;;5.76;86.87;101008.69;4999392;28;20218;-77
2022/01/30 09:31:55;;;;;;;5.75;3.78;;;;;;;5.83;86.81;100988.53;4995341;28;20498;-76
2022/01/30 09:34:20;;;;;;;4.70;4.22;;;;;;;5.81;86.97;100995.56;4997908;28;20235;-77
2022/01/30 09:36:45;;;;;;;3.80;3.50;;;;;;;5.92;87.01;100993.56;4987143;28;20324;-77
2022/01/30 09:39:11;;;;;;;6.63;4.60;;;;;;;6.22;86.70;100990.34;5031841;23;20239;-78
2022/01/30 09:41:37;;;;;;;4.63;4.13;;;;;;;6.43;86.13;100992.44;4984260;28;20290;-78
2022/01/30 09:44:02;;;;;;;4.43;4.03;;;;;;;6.72;85.43;100985.59;4992192;28;20346;-78
2022/01/30 09:46:29;;;;;;;4.37;3.20;;;;;;;6.89;84.62;100977.34;4996277;28;20466;-78
2022/01/30 09:48:54;;;;;;;3.03;2.72;;;;;;;6.84;83.83;100975.72;4996809;28;20242;-78
2022/01/30 09:51:20;;;;;;;5.50;3.10;;;;;;;6.79;83.97;100969.75;4995351;28;20234;-78
2022/01/30 09:53:45;;;;;;;4.23;3.53;;;;;;;6.78;83.42;100972.41;5010152;28;20207;-78
2022/01/30 09:56:10;;;;;;;2.90;2.70;;;;;;;6.76;83.41;100977.66;4997777;28;20345;-78
2022/01/30 09:58:36;;;;;;;4.10;3.57;;;;;;;6.77;83.51;100976.75;4997131;28;20250;-78
2022/01/30 10:01:01;;;;;;;4.10;3.27;;;;;;;6.77;83.31;100970.69;4998577;28;20470;-78
2022/01/30 10:03:27;;;;;;;2.67;2.47;;;;;;;6.75;83.32;100977.69;4996757;28;20582;-77
2022/01/30 10:06:08;;;;;;;5.80;4.17;;;;;;;6.75;83.01;100982.91;4994075;28;20215;-77
2022/01/30 10:08:41;;;;;;;5.22;4.15;;;;;;;6.79;83.24;100977.59;4996475;28;20238;-77
2022/01/30 10:11:26;;;;;;;4.68;4.28;;;;;;;6.83;82.91;100979.22;4998084;28;20246;-78
2022/01/30 10:14:07;;;;;;;3.50;3.20;;;;;;;6.86;82.48;100980.91;4995565;28;20241;-77
2022/01/30 10:16:53;;;;;;;5.38;4.40;;;;;;;6.84;82.66;100980.09;4994294;28;20238;-78
2022/01/30 10:19:21;;;;;;;5.75;4.50;;;;;;;6.81;82.71;100973.19;4996407;28;20317;-78
2022/01/30 10:21:48;;;;;;;4.72;4.40;;;;;;;6.86;82.31;100981.75;4993217;28;20207;-77
2022/01/30 10:24:27;;;;;;;4.95;4.43;;;;;;;6.85;82.45;100973.94;4995237;28;20243;-77
2022/01/30 10:26:57;;;;;;;4.85;4.40;;;;;;;6.83;82.75;100974.00;4999274;28;20216;-78
2022/01/30 10:29:28;;;;;;;4.60;4.15;;;;;;;6.92;82.35;100972.03;4999519;28;20489;-78
2022/01/30 10:32:10;;;;;;;5.82;5.32;;;;;;;6.98;82.28;100967.50;4994990;28;20594;-78
2022/01/30 10:34:38;;;;;;;6.88;6.18;;;;;;;6.92;82.61;100966.81;4996196;28;20289;-78
2022/01/30 10:37:11;;;;;;;8.45;6.18;;;;;;;6.91;82.81;100970.31;4994547;28;20285;-78
2022/01/30 10:39:58;;;;;;;6.00;5.40;;;;;;;6.95;82.60;100974.56;4997122;28;20278;-79
2022/01/30 10:42:42;;;;;;;5.82;4.95;;;;;;;6.96;82.27;100978.88;5004598;28;20206;-78
2022/01/30 10:45:29;;;;;;;6.07;4.43;;;;;;;7.03;82.25;100970.84;5019798;28;20298;-79
2022/01/30 10:48:18;;;;;;;3.90;3.00;;;;;;;7.16;81.68;100960.94;4996150;28;20208;-78
2022/01/30 10:50:47;;;;;;;5.85;3.80;;;;;;;7.19;81.23;100967.81;4997740;28;20219;-78
2022/01/30 10:53:21;;;;;;;4.20;3.70;;;;;;;7.15;80.98;100964.41;4994158;28;20208;-78
2022/01/30 10:55:48;;;;;;;4.68;3.70;;;;;;;7.13;80.94;100961.00;4994923;28;20298;-78
2022/01/30 10:58:16;;;;;;;3.50;3.20;;;;;;;7.19;80.77;100958.22;4999609;28;20222;-78
2022/01/30 11:00:53;;;;;;;5.07;3.80;;;;;;;7.40;79.89;100951.53;4998998;28;20494;-78
2022/01/30 11:03:38;;;;;;;4.03;2.90;;;;;;;7.47;79.44;100945.22;4997923;28;20465;-78
2022/01/30 11:06:11;;;;;;;5.38;3.30;;;;;;;7.62;79.06;100933.44;5015051;28;20218;-78
2022/01/30 11:08:43;;;;;;;5.25;2.92;;;;;;;7.71;78.38;100934.94;5000220;28;20222;-78
2022/01/30 11:14:23;;;;;;;6.93;3.92;;;;;;;7.83;77.34;100926.72;4978945;28;20306;-78
2022/01/30 11:17:06;;;;;;;5.35;4.00;;;;;;;7.85;76.70;100919.66;4976377;28;20223;-78
2022/01/30 11:19:43;;;;;;;3.63;3.00;;;;;;;7.80;76.17;100915.47;4990554;28;20235;-78
2022/01/30 11:22:11;;;;;;;7.43;3.33;;;;;;;7.71;76.13;100912.22;4999164;28;20202;-78
2022/01/30 11:24:46;;;;;;;9.45;3.22;;;;;;;7.65;76.08;100907.19;4999503;28;20293;-79
2022/01/30 11:27:13;;;;;;;6.68;3.35;;;;;;;7.61;76.64;100910.81;5000262;28;20242;-79
2022/01/30 11:29:38;;;;;;;7.53;3.88;;;;;;;7.60;76.59;100910.88;4996791;28;20212;-78
2022/01/30 11:32:06;;;;;;;4.60;3.08;;;;;;;7.64;76.12;100899.38;4999268;28;20496;-78
2022/01/30 11:34:36;;;;;;;3.90;2.65;;;;;;;7.54;76.80;100907.53;4998796;28;20200;-78
2022/01/30 11:37:03;;;;;;;4.47;3.13;;;;;;;7.54;76.38;100888.38;4996153;28;20350;-78
2022/01/30 11:39:29;;;;;;;3.38;3.03;;;;;;;7.60;76.45;100885.56;4997337;28;20613;-78
2022/01/30 11:42:07;;;;;;;4.67;3.50;;;;;;;7.69;76.29;100871.34;4993946;28;20234;-78
2022/01/30 11:44:33;;;;;;;4.10;3.13;;;;;;;7.81;75.80;100872.72;4995814;28;20219;-78
2022/01/30 11:47:01;;;;;;;3.00;2.73;;;;;;;7.92;75.95;100868.00;4994377;28;20233;-78
2022/01/30 11:49:59;;;;;;;6.10;4.20;;;;;;;8.07;75.07;100857.00;4995842;28;20757;-79
2022/01/30 11:52:54;;;;;;;5.57;3.03;;;;;;;8.15;74.38;100862.00;4999113;28;20250;-78
2022/01/30 11:55:39;;;;;;;8.93;3.20;;;;;;;8.13;73.93;100856.84;4998275;28;20230;-79
2022/01/30 11:58:05;;;;;;;8.95;3.65;;;;;;;8.13;74.12;100848.97;4996051;28;20200;-78
2022/01/30 12:00:35;;;;;;;6.40;3.70;;;;;;;8.23;73.96;100836.41;4997258;28;20479;-78
2022/01/30 12:03:28;;;;;;;4.68;4.13;;;;;;;8.13;74.14;100828.03;4994805;28;20469;-78
2022/01/30 12:05:55;;;;;;;2.88;2.10;;;;;;;8.11;73.17;100824.63;4995233;28;20203;-78
2022/01/30 12:09:03;;;;;;;4.15;2.45;;;;;;;8.09;72.39;100820.34;4995107;28;20207;-78
2022/01/30 12:11:37;;;;;;;6.03;2.20;;;;;;;8.15;71.28;100818.34;4985610;28;20639;-78
2022/01/30 12:14:23;;;;;;;3.33;2.50;;;;;;;8.25;69.07;100818.06;4991518;28;20305;-78
2022/01/30 12:17:03;;;;;;;3.53;2.40;;;;;;;8.36;67.20;100823.78;4992294;28;20221;-78
2022/01/30 12:19:31;;;;;;;5.55;2.08;;;;;;;8.39;66.36;100819.31;4996159;28;20313;-78
2022/01/30 12:22:20;;;;;;;7.75;3.15;;;;;;;8.36;65.93;100816.75;4990734;28;20246;-78
2022/01/30 12:24:48;;;;;;;4.40;2.25;;;;;;;8.28;65.27;100812.72;4998643;28;20239;-78
2022/01/30 12:27:15;;;;;;;5.63;2.60;;;;;;;8.19;65.22;100803.44;4994449;28;20466;-78
2022/01/30 12:29:42;;;;;;;4.05;2.45;;;;;;;8.11;64.92;100798.44;4993227;28;20228;-78
2022/01/30 12:32:20;;;;;;;6.60;3.55;;;;;;;8.15;64.17;100805.28;4995872;28;20500;-78
2022/01/30 12:35:06;;;;;;;7.95;2.95;;;;;;;8.12;63.92;100802.75;4997342;28;20288;-78
2022/01/30 12:37:33;;;;;;;2.42;2.22;;;;;;;8.10;63.66;100801.97;4994296;28;20277;-78
2022/01/30 12:40:13;;;;;;;8.40;3.38;;;;;;;8.09;62.90;100807.25;4997529;28;20840;-78
2022/01/30 12:42:39;;;;;;;3.97;2.78;;;;;;;8.09;63.11;100813.34;4993892;28;20215;-79
2022/01/30 12:45:16;;;;;;;4.83;1.67;;;;;;;8.10;62.70;100814.19;4993048;28;20229;-78
2022/01/30 12:47:51;;;;;;;4.78;2.05;;;;;;;8.08;62.69;100801.19;4985355;28;20207;-78
2022/01/30 12:50:18;;;;;;;8.00;3.13;;;;;;;8.08;62.66;100798.56;4991049;28;20210;-78